Time;durP1;ratioP1;P1;durP2;ratioP2;P2;SDS_P1;SDS_P2;PMS_P1;PMS_P2;Temp;Humidity;BMP_temperature;BMP_pressure;BME280_temperature;BME280_humidity;BME280_pressure;Samples;Min_cycle;Max_cycle;Signal;HPM_P1;HPM_P2
2022/04/02 00:01:43;;;;;;;8.70;2.72;;;;;;;5.29;57.25;101818.38;4934284;28;20047;-53
2022/04/02 00:04:09;;;;;;;4.90;2.63;;;;;;;5.17;57.31;101816.09;4941847;28;20046;-54
2022/04/02 00:06:35;;;;;;;7.07;2.95;;;;;;;5.21;57.66;101818.00;4946905;28;20077;-51
2022/04/02 00:09:01;;;;;;;6.05;3.05;;;;;;;5.22;57.38;101816.31;4941241;28;20141;-51
2022/04/02 00:11:27;;;;;;;5.25;2.63;;;;;;;5.40;56.55;101809.47;4950399;28;20066;-53
2022/04/02 00:13:52;;;;;;;6.35;2.75;;;;;;;5.39;57.26;101814.53;4931823;28;20046;-55
2022/04/02 00:16:18;;;;;;;11.23;2.85;;;;;;;5.02;57.47;101811.81;4939402;28;20530;-52
2022/04/02 00:18:43;;;;;;;7.43;2.85;;;;;;;5.33;56.62;101809.97;4943139;28;20117;-50
2022/04/02 00:21:09;;;;;;;7.15;2.67;;;;;;;5.49;56.42;101807.31;4946347;28;20102;-54
2022/04/02 00:23:41;;;;;;;9.70;3.00;;;;;;;5.45;56.77;101807.09;4942807;28;20058;-51
2022/04/02 00:26:08;;;;;;;8.30;2.75;;;;;;;5.58;56.50;101807.75;4942369;28;20638;-54
2022/04/02 00:28:36;;;;;;;5.97;2.70;;;;;;;5.52;56.68;101806.56;4942567;28;20486;-55
2022/04/02 00:31:01;;;;;;;7.35;2.83;;;;;;;5.50;56.38;101815.94;4950695;28;20514;-52
2022/04/02 00:33:27;;;;;;;9.88;3.03;;;;;;;5.76;55.88;101806.88;4942730;28;20158;-51
2022/04/02 00:35:53;;;;;;;7.40;2.67;;;;;;;5.44;56.68;101802.72;4943703;28;20491;-53
2022/04/02 00:38:18;;;;;;;8.35;2.90;;;;;;;5.71;56.30;101809.25;4947218;28;20113;-51
2022/04/02 00:40:44;;;;;;;7.65;2.67;;;;;;;5.79;55.87;101804.44;4934474;28;20047;-53
2022/04/02 00:43:55;;;;;;;6.45;2.70;;;;;;;5.59;55.72;101799.19;4945685;28;20035;-56
2022/04/02 00:46:20;;;;;;;7.22;2.88;;;;;;;5.70;55.74;101802.28;4924057;28;20046;-53
2022/04/02 00:48:46;;;;;;;7.45;2.65;;;;;;;5.60;56.15;101798.38;4946765;28;20378;-55
2022/04/02 00:51:13;;;;;;;7.25;2.72;;;;;;;5.81;55.65;101800.19;4945095;28;20395;-55
2022/04/02 00:53:44;;;;;;;5.95;2.60;;;;;;;5.70;55.74;101800.59;4936033;28;20043;-56
2022/04/02 00:56:09;;;;;;;10.35;2.70;;;;;;;5.76;55.54;101801.69;4942468;28;20406;-51
2022/04/02 00:58:35;;;;;;;7.28;2.60;;;;;;;5.84;55.64;101803.84;4936721;28;20475;-50
2022/04/02 01:01:01;;;;;;;9.07;2.60;;;;;;;5.88;55.13;101810.06;4944148;28;20062;-54
2022/04/02 01:03:27;;;;;;;5.93;2.90;;;;;;;5.85;55.52;101815.06;4941300;28;20491;-51
2022/04/02 01:05:53;;;;;;;7.78;2.60;;;;;;;5.82;55.50;101810.63;4935392;28;20610;-52
2022/04/02 01:08:18;;;;;;;4.80;2.45;;;;;;;5.84;55.66;101814.19;4947485;28;20422;-51
2022/04/02 01:10:44;;;;;;;5.85;2.67;;;;;;;5.72;56.30;101805.84;4937795;28;20455;-50
2022/04/02 01:13:10;;;;;;;9.10;2.58;;;;;;;5.77;56.14;101809.53;4937706;28;20078;-53
2022/04/02 01:15:36;;;;;;;5.07;2.60;;;;;;;5.60;56.81;101808.72;4938956;28;20081;-49
2022/04/02 01:18:03;;;;;;;7.57;2.80;;;;;;;5.73;56.76;101817.97;4944774;28;20050;-51
2022/04/02 01:20:30;;;;;;;7.53;2.47;;;;;;;5.88;56.68;101818.72;4942119;28;20376;-53
2022/04/02 01:22:59;;;;;;;10.48;2.85;;;;;;;5.67;56.45;101812.50;4940833;28;20418;-55
2022/04/02 01:25:31;;;;;;;5.97;2.90;;;;;;;5.82;56.20;101818.41;4943706;28;20467;-53
2022/04/02 01:28:00;;;;;;;6.95;2.47;;;;;;;5.86;56.04;101825.47;4934481;28;20049;-54
2022/04/02 01:30:26;;;;;;;7.65;2.40;;;;;;;5.88;56.27;101820.41;4941862;28;20042;-53
2022/04/02 01:32:51;;;;;;;5.22;2.58;;;;;;;5.84;56.65;101821.06;4945422;28;20043;-55
2022/04/02 01:35:19;;;;;;;9.63;2.72;;;;;;;5.88;56.01;101820.41;4943170;28;20137;-53
2022/04/02 01:37:45;;;;;;;6.57;2.53;;;;;;;5.77;56.63;101817.28;4939243;28;20042;-51
2022/04/02 01:40:11;;;;;;;6.03;2.58;;;;;;;5.87;56.51;101818.59;4938874;28;20050;-51
2022/04/02 01:42:36;;;;;;;7.03;2.72;;;;;;;5.94;56.26;101820.69;4944424;28;20078;-55
2022/04/02 01:45:03;;;;;;;7.85;2.88;;;;;;;5.77;56.61;101826.75;4944820;28;20138;-53
2022/04/02 01:47:29;;;;;;;6.18;2.63;;;;;;;5.63;56.99;101826.09;4943298;28;20385;-54
2022/04/02 01:49:54;;;;;;;9.98;2.65;;;;;;;5.81;56.84;101828.66;4937432;28;20039;-54
2022/04/02 01:52:20;;;;;;;7.88;3.03;;;;;;;5.81;56.38;101821.78;4943454;28;20141;-54
2022/04/02 01:54:48;;;;;;;8.20;3.20;;;;;;;5.79;56.45;101825.13;4946721;28;20046;-54
2022/04/02 01:57:15;;;;;;;9.10;2.83;;;;;;;5.64;56.82;101825.28;4926449;28;20058;-54
2022/04/02 01:59:44;;;;;;;5.82;2.90;;;;;;;5.62;56.79;101830.38;4938543;28;20158;-53
2022/04/02 02:02:13;;;;;;;6.45;2.92;;;;;;;5.59;56.97;101830.22;4943098;28;20043;-54
2022/04/02 02:04:39;;;;;;;7.18;2.85;;;;;;;5.34;57.61;101826.38;4943947;28;20204;-53
2022/04/02 02:07:05;;;;;;;6.15;3.05;;;;;;;5.49;57.63;101834.91;4945544;28;20186;-52
2022/04/02 02:09:30;;;;;;;10.85;3.10;;;;;;;5.42;57.53;101835.41;4942556;28;20125;-54
2022/04/02 02:11:56;;;;;;;6.43;3.03;;;;;;;5.34;57.79;101832.44;4937061;28;22586;-55
2022/04/02 02:14:22;;;;;;;5.38;3.30;;;;;;;5.35;57.91;101830.72;4947949;28;20062;-55
2022/04/02 02:16:48;;;;;;;7.68;3.08;;;;;;;5.29;58.33;101833.91;4940984;28;20058;-54
2022/04/02 02:19:13;;;;;;;8.32;3.22;;;;;;;5.25;58.87;101831.94;4947980;28;20105;-55
2022/04/02 02:21:38;;;;;;;7.43;3.65;;;;;;;5.41;58.52;101833.63;4944198;28;20647;-55
2022/04/02 02:24:04;;;;;;;9.90;3.33;;;;;;;5.29;58.71;101829.63;4944716;28;20043;-52
2022/04/02 02:26:36;;;;;;;10.05;3.20;;;;;;;5.23;59.35;101826.72;4948791;28;20051;-54
2022/04/02 02:29:05;;;;;;;7.80;3.15;;;;;;;4.96;59.56;101839.94;4946306;28;20047;-57
2022/04/02 02:31:31;;;;;;;6.57;3.35;;;;;;;5.21;58.60;101843.84;4949698;28;20043;-55
2022/04/02 02:36:41;;;;;;;7.75;3.20;;;;;;;5.21;58.13;101846.44;4950162;28;20098;-53
2022/04/02 02:39:06;;;;;;;7.18;3.20;;;;;;;5.06;58.58;101848.22;4950560;28;20046;-53
2022/04/02 02:41:32;;;;;;;5.35;2.88;;;;;;;5.38;58.05;101844.69;4947634;28;20051;-54
2022/04/02 02:43:58;;;;;;;6.43;3.08;;;;;;;5.46;57.48;101838.19;4941651;28;20892;-51
2022/04/02 02:46:23;;;;;;;5.93;3.10;;;;;;;5.39;57.41;101836.13;4943646;28;20151;-52
2022/04/02 02:48:48;;;;;;;5.65;3.17;;;;;;;5.37;57.33;101842.91;4949051;28;20043;-52
2022/04/02 02:51:14;;;;;;;6.72;3.15;;;;;;;5.30;57.43;101844.31;4949093;28;20673;-53
2022/04/02 02:53:39;;;;;;;6.80;2.90;;;;;;;5.47;57.03;101846.84;4940634;28;20551;-51
2022/04/02 02:56:05;;;;;;;5.68;3.00;;;;;;;5.28;57.39;101847.63;4948284;28;20602;-53
2022/04/02 02:58:31;;;;;;;6.10;3.17;;;;;;;5.30;57.28;101840.84;4948573;28;20047;-54
2022/04/02 03:00:56;;;;;;;6.47;3.10;;;;;;;5.43;57.38;101843.22;4947949;28;20061;-54
2022/04/02 03:03:22;;;;;;;12.43;3.40;;;;;;;5.27;58.17;101851.03;4944318;28;20263;-53
2022/04/02 03:05:50;;;;;;;8.70;3.30;;;;;;;5.29;58.78;101849.41;4944899;28;20475;-55
2022/04/02 03:08:16;;;;;;;7.88;3.28;;;;;;;5.34;58.38;101849.63;4947783;28;20603;-54
2022/04/02 03:10:44;;;;;;;8.00;3.30;;;;;;;5.38;58.29;101841.22;4946823;28;20470;-52
2022/04/02 03:13:09;;;;;;;8.82;3.22;;;;;;;5.23;58.82;101847.41;4946145;28;20054;-51
2022/04/02 03:15:34;;;;;;;5.75;3.40;;;;;;;5.27;58.85;101848.44;4941238;28;20049;-54
2022/04/02 03:18:05;;;;;;;10.57;3.75;;;;;;;5.23;59.20;101844.81;4943180;28;20066;-51
2022/04/02 03:20:30;;;;;;;6.13;3.20;;;;;;;5.11;59.56;101844.22;4938540;28;20069;-53
2022/04/02 03:22:56;;;;;;;6.88;3.17;;;;;;;5.18;59.24;101855.75;4942449;28;20805;-55
2022/04/02 03:25:21;;;;;;;6.43;3.50;;;;;;;5.15;59.63;101853.00;4948109;28;20043;-53
2022/04/02 03:27:48;;;;;;;5.60;3.25;;;;;;;5.12;59.40;101852.84;4937988;28;20078;-52
2022/04/02 03:30:16;;;;;;;7.35;3.38;;;;;;;5.02;59.88;101853.19;4947785;28;20528;-50
2022/04/02 03:32:42;;;;;;;6.78;3.30;;;;;;;4.94;60.19;101847.59;4946018;28;20187;-51
2022/04/02 03:35:08;;;;;;;7.35;3.35;;;;;;;5.09;59.61;101842.34;4949928;28;20129;-53
2022/04/02 03:37:37;;;;;;;11.65;3.58;;;;;;;5.04;59.78;101851.56;4938934;28;20045;-53
2022/04/02 03:40:08;;;;;;;8.82;3.50;;;;;;;5.18;59.26;101848.00;4944467;28;20046;-54
2022/04/02 03:42:34;;;;;;;6.03;3.17;;;;;;;5.11;59.91;101846.78;4947822;28;20826;-54
2022/04/02 03:44:59;;;;;;;6.65;3.50;;;;;;;4.82;60.37;101844.38;4943652;28;20054;-53
2022/04/02 03:47:25;;;;;;;11.15;3.92;;;;;;;4.88;60.38;101848.19;4944455;28;20050;-54
2022/04/02 03:49:53;;;;;;;9.65;3.70;;;;;;;5.07;60.36;101846.53;4936133;28;20043;-52
2022/04/02 03:52:19;;;;;;;14.27;3.70;;;;;;;4.94;60.14;101854.50;4948708;28;20077;-55
2022/04/02 03:54:44;;;;;;;7.75;3.80;;;;;;;5.02;59.63;101860.94;4947959;28;20078;-53
2022/04/02 03:57:12;;;;;;;7.85;3.55;;;;;;;4.97;59.83;101857.22;4947914;28;20058;-51
2022/04/02 03:59:39;;;;;;;7.75;3.10;;;;;;;4.95;59.80;101854.56;4941024;28;20042;-53
2022/04/02 04:02:05;;;;;;;6.68;3.55;;;;;;;5.00;60.00;101863.44;4939521;28;20062;-53
2022/04/02 04:04:31;;;;;;;9.82;3.65;;;;;;;4.87;60.29;101850.72;4948399;28;20047;-50
2022/04/02 04:06:57;;;;;;;8.35;3.50;;;;;;;4.85;59.80;101857.47;4946170;28;20042;-54
2022/04/02 04:09:22;;;;;;;9.40;3.63;;;;;;;4.86;60.23;101855.00;4943363;28;20462;-53
2022/04/02 04:11:48;;;;;;;8.15;3.58;;;;;;;4.65;60.36;101861.59;4939219;28;20480;-53
2022/04/02 04:14:15;;;;;;;8.70;3.60;;;;;;;4.74;60.29;101859.50;4946021;28;20498;-50
2022/04/02 04:16:43;;;;;;;11.90;3.70;;;;;;;4.78;60.33;101869.19;4945263;28;20058;-52
2022/04/02 04:19:09;;;;;;;6.13;3.30;;;;;;;4.78;60.29;101870.88;4940370;28;20506;-54
2022/04/02 04:21:34;;;;;;;7.72;3.50;;;;;;;4.74;60.35;101871.53;4939380;28;20642;-57
2022/04/02 04:24:01;;;;;;;8.50;3.47;;;;;;;4.69;60.18;101880.75;4940863;28;20134;-53
2022/04/02 04:26:27;;;;;;;6.30;3.58;;;;;;;4.79;59.92;101875.25;4946216;28;20046;-52
2022/04/02 04:28:52;;;;;;;8.57;3.92;;;;;;;4.65;60.31;101881.38;4942507;28;20058;-52
2022/04/02 04:31:18;;;;;;;7.57;3.25;;;;;;;4.75;59.68;101881.06;4946742;28;20117;-54
2022/04/02 04:33:45;;;;;;;8.23;3.30;;;;;;;4.62;60.13;101883.81;4937692;28;20077;-52
2022/04/02 04:36:11;;;;;;;8.70;3.50;;;;;;;4.56;59.90;101886.06;4944526;28;20074;-53
2022/04/02 04:38:36;;;;;;;6.95;3.60;;;;;;;4.48;60.10;101891.69;4941054;28;20035;-52
2022/04/02 04:41:02;;;;;;;10.38;3.80;;;;;;;4.46;60.47;101888.13;4941762;28;20046;-51
2022/04/02 04:43:28;;;;;;;7.78;3.35;;;;;;;4.42;60.83;101891.38;4943103;28;20491;-51
2022/04/02 04:45:53;;;;;;;7.63;3.50;;;;;;;4.41;60.10;101887.00;4942289;28;20054;-52
2022/04/02 04:48:20;;;;;;;8.32;3.58;;;;;;;4.33;61.08;101890.84;4941884;28;20077;-54
2022/04/02 04:50:46;;;;;;;11.40;3.50;;;;;;;4.48;60.02;101906.31;4942733;28;20050;-53
2022/04/02 04:53:11;;;;;;;9.38;3.55;;;;;;;4.41;60.08;101902.50;4948647;28;20062;-52
2022/04/02 04:55:37;;;;;;;7.10;3.83;;;;;;;4.29;60.53;101901.81;4935568;28;20046;-51
2022/04/02 04:58:02;;;;;;;7.75;3.53;;;;;;;4.30;60.76;101901.03;4937332;28;20446;-52
2022/04/02 05:00:28;;;;;;;8.18;3.58;;;;;;;4.32;60.22;101912.34;4939546;28;20318;-51
2022/04/02 05:02:53;;;;;;;8.63;3.35;;;;;;;4.24;60.17;101911.03;4946144;28;20125;-52
2022/04/02 05:05:19;;;;;;;7.78;3.95;;;;;;;4.15;60.64;101915.66;4946069;28;20078;-54
2022/04/02 05:07:45;;;;;;;9.25;3.72;;;;;;;4.16;61.09;101920.00;4934452;28;20438;-51
2022/04/02 05:10:11;;;;;;;6.57;3.85;;;;;;;4.23;60.99;101921.25;4941240;28;20229;-54
2022/04/02 05:12:39;;;;;;;8.90;3.53;;;;;;;4.22;60.92;101922.94;4942602;28;20077;-53
2022/04/02 05:15:08;;;;;;;7.90;3.50;;;;;;;4.19;60.46;101922.78;4945920;28;20613;-51
2022/04/02 05:17:34;;;;;;;10.50;3.85;;;;;;;4.15;60.39;101919.97;4940020;28;20161;-55
2022/04/02 05:20:00;;;;;;;6.78;3.47;;;;;;;4.26;60.21;101921.44;4938128;28;20861;-53
2022/04/02 05:22:26;;;;;;;8.00;3.97;;;;;;;4.22;60.03;101922.03;4945899;28;20045;-54
2022/04/02 05:24:51;;;;;;;6.95;3.60;;;;;;;4.31;60.40;101930.31;4947505;28;20047;-53
2022/04/02 05:27:17;;;;;;;8.38;3.75;;;;;;;4.40;59.68;101925.63;4942047;28;20088;-53
2022/04/02 05:29:43;;;;;;;8.35;3.58;;;;;;;4.26;60.48;101927.50;4937409;28;20047;-53
2022/04/02 05:32:09;;;;;;;9.52;3.75;;;;;;;4.30;59.62;101928.53;4946265;28;20055;-54
2022/04/02 05:34:34;;;;;;;10.00;3.80;;;;;;;4.41;59.76;101927.41;4946033;28;20101;-53
2022/04/02 05:36:59;;;;;;;7.57;3.70;;;;;;;4.39;59.01;101927.31;4946410;28;20046;-55
2022/04/02 05:39:25;;;;;;;7.75;3.70;;;;;;;4.57;58.48;101931.75;4944571;28;20050;-52
2022/04/02 05:41:51;;;;;;;8.55;3.85;;;;;;;4.52;58.47;101931.47;4937910;28;20347;-52
2022/04/02 05:44:17;;;;;;;8.57;3.90;;;;;;;4.58;58.82;101943.81;4943935;28;20058;-54
2022/04/02 05:46:43;;;;;;;8.82;3.60;;;;;;;4.73;57.94;101948.16;4945102;28;20594;-54
2022/04/02 05:49:08;;;;;;;8.38;3.90;;;;;;;4.73;57.77;101950.72;4948512;28;20169;-52
2022/04/02 05:51:34;;;;;;;10.70;4.15;;;;;;;4.74;57.95;101952.50;4943593;28;20047;-53
2022/04/02 05:54:00;;;;;;;7.55;3.50;;;;;;;4.93;57.56;101962.13;4942992;28;20493;-53
2022/04/02 05:56:26;;;;;;;9.82;3.78;;;;;;;5.07;56.77;101963.72;4950602;28;20117;-53
2022/04/02 05:58:53;;;;;;;10.15;3.75;;;;;;;4.99;56.83;101961.56;4949176;28;20043;-56
2022/04/02 06:01:19;;;;;;;6.40;3.30;;;;;;;5.08;56.59;101967.22;4945369;28;20606;-56
2022/04/02 06:03:45;;;;;;;7.60;3.60;;;;;;;5.33;56.38;101972.84;4940072;28;20117;-51
2022/04/02 06:06:10;;;;;;;9.70;3.20;;;;;;;5.54;55.90;101971.38;4943051;28;20126;-51
2022/04/02 06:08:35;;;;;;;9.20;3.30;;;;;;;5.42;55.61;101972.47;4949970;28;20130;-53
2022/04/02 06:11:01;;;;;;;7.85;3.30;;;;;;;5.55;55.60;101975.72;4944515;28;20047;-52
2022/04/02 06:13:27;;;;;;;10.80;3.30;;;;;;;5.80;55.51;101971.78;4944307;28;20043;-52
2022/04/02 06:15:53;;;;;;;7.55;3.20;;;;;;;6.57;54.31;101973.03;4944358;28;20275;-55
2022/04/02 06:18:19;;;;;;;6.85;2.92;;;;;;;7.44;51.58;101974.41;4935575;28;21139;-52
2022/04/02 06:20:46;;;;;;;7.90;3.10;;;;;;;8.45;47.79;101975.19;4951395;28;20381;-52
2022/04/02 06:23:13;;;;;;;5.28;3.00;;;;;;;9.33;45.49;101976.78;4944772;28;20546;-50
2022/04/02 06:25:38;;;;;;;5.85;2.70;;;;;;;9.86;43.99;101971.69;4942513;28;20142;-55
2022/04/02 06:28:04;;;;;;;7.15;2.88;;;;;;;9.84;43.61;101982.06;4948733;28;20043;-52
2022/04/02 06:30:30;;;;;;;6.88;2.80;;;;;;;10.33;42.29;101984.59;4947779;28;20042;-51
2022/04/02 06:32:55;;;;;;;4.50;2.67;;;;;;;9.88;43.27;101981.31;4947346;28;20398;-51
2022/04/02 06:35:23;;;;;;;6.00;2.65;;;;;;;10.65;41.63;101984.72;4941631;28;20046;-55
2022/04/02 06:37:50;;;;;;;7.88;3.03;;;;;;;11.35;40.38;101985.03;4934779;28;20046;-53
2022/04/02 06:40:16;;;;;;;4.93;2.75;;;;;;;11.45;40.24;101992.31;4942607;28;20243;-52
2022/04/02 06:42:43;;;;;;;5.03;2.85;;;;;;;11.61;40.03;101994.47;4947899;28;20079;-52
2022/04/02 06:45:10;;;;;;;5.38;2.67;;;;;;;11.30;39.68;101991.84;4943715;28;20062;-52
2022/04/02 06:47:36;;;;;;;7.63;2.95;;;;;;;11.43;39.28;101991.38;4945744;28;20054;-50
2022/04/02 06:50:06;;;;;;;7.07;2.63;;;;;;;12.05;37.93;102000.00;4933588;28;20062;-53
2022/04/02 06:52:32;;;;;;;5.90;2.83;;;;;;;11.80;38.51;102006.34;4947741;28;20653;-51
2022/04/02 06:54:57;;;;;;;6.18;3.20;;;;;;;12.79;37.35;102014.00;4940165;28;20054;-51
2022/04/02 06:57:23;;;;;;;4.95;2.78;;;;;;;12.51;37.89;102007.22;4945926;28;20046;-52
2022/04/02 06:59:49;;;;;;;6.50;3.20;;;;;;;12.27;38.23;102012.75;4939537;28;20062;-51
2022/04/02 07:02:20;;;;;;;7.05;2.80;;;;;;;13.44;36.04;102017.16;4939327;28;20054;-51
2022/04/02 07:04:45;;;;;;;5.57;2.97;;;;;;;13.18;36.64;102014.88;4943761;28;20583;-51
2022/04/02 07:07:11;;;;;;;5.15;2.90;;;;;;;13.00;36.66;102017.94;4949404;28;20062;-52
2022/04/02 07:09:36;;;;;;;4.68;2.80;;;;;;;12.76;36.97;102027.88;4943917;28;20061;-50
2022/04/02 07:12:02;;;;;;;6.18;2.88;;;;;;;13.44;36.38;102027.63;4941075;28;21475;-54
2022/04/02 07:14:28;;;;;;;4.78;2.50;;;;;;;12.41;36.05;102032.28;4930601;28;20043;-53
2022/04/02 07:16:53;;;;;;;7.38;2.72;;;;;;;13.16;35.46;102034.94;4945680;28;20130;-50
2022/04/02 07:19:25;;;;;;;6.10;2.90;;;;;;;13.09;35.08;102034.72;4938775;28;20047;-49
2022/04/02 07:21:52;;;;;;;5.95;2.90;;;;;;;11.32;37.54;102047.63;4935779;28;20048;-50
2022/04/02 07:24:18;;;;;;;9.50;3.10;;;;;;;11.08;37.48;102045.19;4948056;28;20061;-50
2022/04/02 07:26:47;;;;;;;8.10;2.70;;;;;;;10.71;38.21;102051.00;4945676;28;20050;-51
2022/04/02 07:29:14;;;;;;;5.43;2.80;;;;;;;11.26;38.07;102048.34;4949925;28;20536;-51
2022/04/02 07:31:40;;;;;;;5.78;2.80;;;;;;;12.06;36.42;102047.09;4941683;28;20621;-51
2022/04/02 07:34:06;;;;;;;6.50;2.85;;;;;;;12.28;36.01;102048.53;4948686;28;20082;-50
2022/04/02 07:37:04;;;;;;;8.93;2.70;;;;;;;11.69;36.56;102050.44;4934191;28;20047;-49
2022/04/02 07:39:57;;;;;;;6.00;2.67;;;;;;;12.57;35.13;102055.34;4945046;28;20051;-50
2022/04/02 07:42:57;;;;;;;6.00;2.55;;;;;;;12.38;35.24;102060.13;4946557;28;20051;-53
2022/04/02 07:45:28;;;;;;;8.52;2.58;;;;;;;12.12;34.43;102062.94;4939651;28;20055;-48
2022/04/02 07:47:57;;;;;;;4.45;2.55;;;;;;;11.39;35.44;102065.25;4934917;28;20658;-51
2022/04/02 07:50:27;;;;;;;8.23;2.60;;;;;;;10.72;37.75;102063.19;4944561;28;20047;-52
2022/04/02 07:52:55;;;;;;;5.15;2.50;;;;;;;11.17;37.54;102066.31;4963354;28;20046;-52
2022/04/02 07:55:22;;;;;;;7.45;2.80;;;;;;;10.37;37.35;102063.78;4943871;28;20803;-54
2022/04/02 07:57:52;;;;;;;6.55;2.53;;;;;;;9.76;38.03;102069.44;4937698;28;20061;-49
2022/04/02 08:00:26;;;;;;;10.20;2.60;;;;;;;9.42;39.19;102074.25;4936292;28;20312;-51
2022/04/02 08:02:56;;;;;;;3.90;2.43;;;;;;;8.38;41.11;102077.09;4947476;28;20038;-50
2022/04/02 08:05:22;;;;;;;6.78;2.78;;;;;;;7.98;41.95;102087.50;4948627;28;20334;-52
2022/04/02 08:07:50;;;;;;;6.63;2.58;;;;;;;7.82;42.11;102083.34;4939914;28;20131;-52
2022/04/02 08:10:18;;;;;;;5.63;2.38;;;;;;;8.01;42.56;102087.63;4941583;28;20051;-55
2022/04/02 08:12:44;;;;;;;5.60;2.33;;;;;;;8.29;41.13;102081.91;4945536;28;20568;-53
2022/04/02 08:15:16;;;;;;;4.30;2.00;;;;;;;8.68;38.92;102082.66;4943257;28;20066;-52
2022/04/02 08:17:44;;;;;;;3.78;1.88;;;;;;;8.71;38.33;102081.09;4935141;28;20035;-53
2022/04/02 08:20:10;;;;;;;6.10;2.00;;;;;;;8.52;37.89;102092.44;4946009;28;20058;-49
2022/04/02 08:22:36;;;;;;;4.85;1.80;;;;;;;8.62;37.41;102091.09;4945771;28;20046;-53
2022/04/02 08:25:02;;;;;;;4.57;1.83;;;;;;;7.90;38.95;102099.25;4944661;28;20053;-50
2022/04/02 08:27:35;;;;;;;3.78;1.67;;;;;;;7.90;38.57;102094.94;4946024;28;20089;-50
2022/04/02 08:30:11;;;;;;;3.22;1.60;;;;;;;7.69;37.74;102097.47;4941872;28;20410;-51
2022/04/02 08:33:10;;;;;;;3.63;1.63;;;;;;;7.67;37.14;102100.84;4931949;28;21795;-51
2022/04/02 08:35:45;;;;;;;3.50;1.60;;;;;;;7.86;36.09;102094.75;4941309;28;20165;-52
2022/04/02 08:38:46;;;;;;;3.13;1.70;;;;;;;7.71;36.51;102102.75;4948629;28;20054;-52
2022/04/02 08:41:38;;;;;;;5.38;1.70;;;;;;;7.84;36.25;102110.25;4945095;28;20491;-51
2022/04/02 08:44:42;;;;;;;3.63;1.60;;;;;;;8.21;36.29;102104.06;4943733;28;20063;-51
2022/04/02 08:47:29;;;;;;;5.88;1.90;;;;;;;8.22;36.13;102105.84;4896509;29;20118;-56
2022/04/02 08:50:08;;;;;;;7.45;2.00;;;;;;;8.70;36.83;102113.09;4937863;28;20370;-50
2022/04/02 08:52:53;;;;;;;6.82;1.90;;;;;;;8.79;36.37;102104.75;4941992;28;20062;-50
2022/04/02 08:55:23;;;;;;;3.53;1.80;;;;;;;8.29;36.11;102107.88;4943817;28;20070;-52
2022/04/02 08:58:07;;;;;;;3.53;1.65;;;;;;;8.64;36.40;102114.56;4941582;28;20031;-51
2022/04/02 09:00:38;;;;;;;5.25;1.90;;;;;;;8.91;36.27;102118.25;4943295;28;20057;-50
2022/04/02 09:03:13;;;;;;;5.75;1.85;;;;;;;8.83;36.57;102122.28;4946601;28;20493;-55
2022/04/02 09:05:59;;;;;;;3.63;1.85;;;;;;;9.03;36.29;102125.66;4941558;28;20046;-53
2022/04/02 09:08:40;;;;;;;3.63;1.80;;;;;;;8.90;36.30;102122.56;4941152;28;20073;-54
2022/04/02 09:11:26;;;;;;;4.55;1.83;;;;;;;9.44;35.98;102120.34;4945450;28;20137;-52
2022/04/02 09:14:11;;;;;;;7.38;2.38;;;;;;;9.36;36.34;102120.06;4940656;28;20306;-53
2022/04/02 09:17:04;;;;;;;6.60;2.05;;;;;;;9.46;37.37;102129.09;4947153;28;20106;-50
2022/04/02 09:19:36;;;;;;;5.80;2.20;;;;;;;9.90;36.12;102140.25;4930409;28;20474;-53
2022/04/02 09:22:30;;;;;;;4.78;1.98;;;;;;;9.63;32.18;102135.84;4936673;28;20121;-51
2022/04/02 09:25:33;;;;;;;4.45;1.80;;;;;;;9.57;33.03;102135.63;4947465;28;20057;-49
2022/04/02 09:28:43;;;;;;;6.60;1.77;;;;;;;9.56;33.27;102128.63;4941851;28;20387;-51
2022/04/02 09:31:38;;;;;;;2.97;1.80;;;;;;;9.50;32.50;102131.00;4950021;28;20105;-50
2022/04/02 09:34:28;;;;;;;3.95;2.20;;;;;;;9.14;33.36;102133.09;4946010;28;20048;-54
2022/04/02 09:37:32;;;;;;;4.82;1.90;;;;;;;9.22;33.34;102154.16;4948817;28;20638;-52
2022/04/02 09:40:09;;;;;;;3.42;2.10;;;;;;;8.52;34.34;102133.13;4930373;28;20088;-52
2022/04/02 09:42:36;;;;;;;3.20;1.85;;;;;;;8.33;34.17;102146.19;4948546;28;20142;-53
2022/04/02 09:45:06;;;;;;;4.18;2.05;;;;;;;8.49;33.96;102146.00;4945674;28;20165;-51
2022/04/02 09:47:56;;;;;;;3.20;1.92;;;;;;;8.61;34.78;102136.09;4945160;28;20042;-52
2022/04/02 09:50:23;;;;;;;4.88;1.83;;;;;;;8.67;33.75;102153.66;4943217;28;20125;-49
2022/04/02 09:53:25;;;;;;;3.97;2.08;;;;;;;8.77;34.03;102141.13;4941108;28;20042;-55
2022/04/02 09:56:22;;;;;;;4.45;1.90;;;;;;;9.30;32.78;102144.97;4941776;28;20387;-52
2022/04/02 09:58:58;;;;;;;5.13;1.80;;;;;;;10.08;33.23;102140.91;4938688;28;21443;-53
2022/04/02 10:01:48;;;;;;;8.75;1.95;;;;;;;9.80;32.05;102145.97;4944088;28;20429;-52
2022/04/02 10:04:42;;;;;;;3.35;1.90;;;;;;;9.84;32.10;102143.53;4950548;28;20138;-54
2022/04/02 10:07:27;;;;;;;5.28;2.20;;;;;;;9.56;31.94;102141.66;4939591;28;20112;-53
2022/04/02 10:09:55;;;;;;;3.50;1.80;;;;;;;9.76;31.79;102144.97;4942862;28;20335;-50
2022/04/02 10:12:27;;;;;;;3.33;1.77;;;;;;;9.81;32.87;102152.97;4945478;28;20051;-53
2022/04/02 10:14:57;;;;;;;3.50;1.88;;;;;;;9.10;32.93;102158.91;4951227;28;20043;-50
2022/04/02 10:17:30;;;;;;;6.10;2.10;;;;;;;8.33;34.61;102154.88;4942143;28;20354;-54
2022/04/02 10:19:58;;;;;;;4.38;2.20;;;;;;;8.12;35.30;102149.59;4946180;28;20129;-51
2022/04/02 10:22:55;;;;;;;7.68;2.50;;;;;;;7.68;36.47;102150.22;4941828;28;20089;-52
2022/04/02 10:25:27;;;;;;;4.95;2.42;;;;;;;7.99;36.06;102143.81;4943448;28;20042;-51
2022/04/02 10:27:54;;;;;;;8.85;2.30;;;;;;;8.32;36.21;102150.47;4937830;28;20201;-50
2022/04/02 10:30:20;;;;;;;6.20;2.13;;;;;;;8.06;35.32;102154.50;4949001;28;20050;-51
2022/04/02 10:33:26;;;;;;;5.63;2.05;;;;;;;8.50;35.27;102151.25;4949534;28;20061;-53
2022/04/02 10:35:49;;;;;;;7.75;2.00;;;;;;;8.48;33.83;102150.28;4943998;28;20501;-53
2022/04/02 10:38:51;;;;;;;5.50;2.15;;;;;;;8.60;34.26;102147.31;4941458;28;20153;-53
2022/04/02 10:41:17;;;;;;;3.25;1.70;;;;;;;8.63;34.26;102156.97;4926266;28;20042;-51
2022/04/02 10:44:02;;;;;;;4.03;1.90;;;;;;;8.91;34.76;102152.97;4937382;28;20030;-54
2022/04/02 10:46:31;;;;;;;5.65;2.10;;;;;;;8.57;34.79;102147.22;4942883;28;20074;-53
2022/04/02 10:49:00;;;;;;;4.07;1.80;;;;;;;8.74;34.43;102154.00;4942554;28;20082;-50
2022/04/02 10:51:28;;;;;;;4.82;1.90;;;;;;;8.56;35.27;102148.03;4944938;28;20101;-51
2022/04/02 10:54:07;;;;;;;5.20;1.92;;;;;;;8.55;34.97;102152.34;4935113;28;20620;-50
2022/04/02 10:56:52;;;;;;;3.95;1.92;;;;;;;9.17;35.04;102146.19;4941346;28;20495;-52
2022/04/02 10:59:19;;;;;;;4.93;1.90;;;;;;;9.43;32.68;102144.59;4936897;28;20510;-53
2022/04/02 11:01:46;;;;;;;3.88;1.90;;;;;;;9.03;33.27;102149.06;4942903;28;20093;-54
2022/04/02 11:04:52;;;;;;;3.53;1.77;;;;;;;9.76;31.46;102152.78;4939921;28;20125;-52
2022/04/02 11:07:33;;;;;;;4.45;1.92;;;;;;;9.99;31.34;102156.25;4944868;28;20055;-51
2022/04/02 11:10:10;;;;;;;5.63;1.90;;;;;;;9.15;31.81;102162.59;4945457;28;20450;-52
2022/04/02 11:12:39;;;;;;;3.25;1.70;;;;;;;8.94;32.84;102155.69;4946464;28;20080;-53
2022/04/02 11:15:11;;;;;;;3.85;2.10;;;;;;;8.94;32.64;102147.00;4948616;28;20078;-52
2022/04/02 11:17:42;;;;;;;4.97;2.10;;;;;;;9.42;32.88;102147.13;4938429;28;20533;-57
2022/04/02 11:20:20;;;;;;;4.22;2.10;;;;;;;9.50;32.80;102145.72;4936438;28;20055;-52
2022/04/02 11:22:51;;;;;;;5.10;2.17;;;;;;;9.49;32.84;102136.13;4937793;28;20046;-52
2022/04/02 11:25:24;;;;;;;3.92;2.28;;;;;;;9.31;33.01;102138.94;4945362;28;20181;-51
2022/04/02 11:27:56;;;;;;;5.03;2.10;;;;;;;9.69;30.88;102141.28;4934698;28;20034;-55
2022/04/02 11:30:26;;;;;;;3.75;1.90;;;;;;;10.02;31.46;102143.31;4948029;28;20058;-53
2022/04/02 11:33:01;;;;;;;4.22;2.13;;;;;;;9.92;30.25;102134.28;4949508;28;20046;-49
2022/04/02 11:35:30;;;;;;;4.50;1.90;;;;;;;10.17;30.81;102141.28;4948128;28;20039;-53
2022/04/02 11:38:21;;;;;;;4.10;2.15;;;;;;;9.97;31.12;102127.53;4930377;28;20047;-55
2022/04/02 11:41:01;;;;;;;5.28;1.95;;;;;;;10.50;31.89;102145.03;4951694;28;20042;-51
2022/04/02 11:43:33;;;;;;;4.45;2.30;;;;;;;10.54;31.76;102136.50;4938152;28;20053;-52
2022/04/02 11:46:00;;;;;;;5.68;2.35;;;;;;;9.81;33.61;102139.94;4944551;28;20058;-54
2022/04/02 11:48:31;;;;;;;4.32;2.30;;;;;;;9.82;34.45;102144.34;4947117;28;20149;-50
2022/04/02 11:51:09;;;;;;;4.15;2.10;;;;;;;9.91;32.94;102150.75;4948972;28;20066;-49